Time,TemperatureF,DewpointF,PressureIn,WindDirection,WindDirectionDegrees,WindSpeedMPH,WindSpeedGustMPH,Humidity,HourlyPrecipIn,Conditions,Clouds,dailyrainin,SoftwareType,DateUTC
2013-01-19 00:10:00,32.2,27.0,29.82,SW,225,2.2,-999.0,81,-99.99,,,0.00,Acu-Link.com,2013-01-19 06:10:00,
2013-01-19 00:25:00,32.0,26.8,29.82,SSW,202,1.1,-999.0,81,-99.99,,,0.00,Acu-Link.com,2013-01-19 06:25:00,
2013-01-19 00:40:00,31.6,26.5,29.82,SW,225,1.7,-999.0,81,-99.99,,,0.00,Acu-Link.com,2013-01-19 06:40:00,
2013-01-19 00:56:00,31.5,26.1,29.82,West,270,1.7,-999.0,80,-99.99,,,0.00,Acu-Link.com,2013-01-19 06:56:00,
2013-01-19 01:11:00,31.5,26.1,29.82,SW,225,1.7,-999.0,80,-99.99,,,0.00,Acu-Link.com,2013-01-19 07:11:00,
2013-01-19 01:26:00,31.5,25.8,29.81,SSW,202,2.7,-999.0,79,-99.99,,,0.00,Acu-Link.com,2013-01-19 07:26:00,
2013-01-19 01:57:00,32.4,26.6,29.82,WSW,247,3.7,-999.0,79,-99.99,,,0.00,Acu-Link.com,2013-01-19 07:57:00,
2013-01-19 02:12:00,32.0,26.2,29.82,SW,225,3.2,-999.0,79,-99.99,,,0.00,Acu-Link.com,2013-01-19 08:12:00,
2013-01-19 02:27:00,32.0,25.9,29.83,West,270,2.7,-999.0,78,-99.99,,,0.00,Acu-Link.com,2013-01-19 08:27:00,
2013-01-19 02:43:00,31.8,25.4,29.83,West,270,3.7,-999.0,77,-99.99,,,0.00,Acu-Link.com,2013-01-19 08:43:00,
2013-01-19 02:58:00,31.8,24.8,29.83,West,270,2.7,-999.0,75,-99.99,,,0.00,Acu-Link.com,2013-01-19 08:58:00,
2013-01-19 03:36:00,31.8,24.8,29.83,WSW,247,2.2,-999.0,75,-99.99,,,0.00,Acu-Link.com,2013-01-19 09:36:00,
2013-01-19 03:51:00,34.3,24.9,29.83,West,270,3.2,-999.0,68,-99.99,,,0.00,Acu-Link.com,2013-01-19 09:51:00,
2013-01-19 04:06:00,33.6,24.5,29.84,West,270,4.2,-999.0,69,-99.99,,,0.00,Acu-Link.com,2013-01-19 10:06:00,
2013-01-19 04:21:00,32.7,24.4,29.84,West,270,3.2,-999.0,71,-99.99,,,0.00,Acu-Link.com,2013-01-19 10:21:00,
2013-01-19 04:37:00,33.8,25.1,29.85,West,270,5.3,-999.0,70,-99.99,,,0.00,Acu-Link.com,2013-01-19 10:37:00,
2013-01-19 04:52:00,33.4,24.7,29.84,West,270,3.2,-999.0,70,-99.99,,,0.00,Acu-Link.com,2013-01-19 10:52:00,
2013-01-19 05:07:00,33.1,25.1,29.84,West,270,2.2,-999.0,72,-99.99,,,0.00,Acu-Link.com,2013-01-19 11:07:00,
2013-01-19 06:56:00,35.2,24.6,29.89,West,270,6.3,-999.0,65,-99.99,,,0.00,Acu-Link.com,2013-01-19 12:56:00,
2013-01-19 07:11:00,34.3,24.5,29.89,North,0,4.2,-999.0,67,-99.99,,,0.00,Acu-Link.com,2013-01-19 13:11:00,
2013-01-19 07:26:00,34.2,24.8,29.89,NW,315,5.3,-999.0,68,-99.99,,,0.00,Acu-Link.com,2013-01-19 13:26:00,
2013-01-19 07:42:00,34.3,24.5,29.90,West,270,3.7,-999.0,67,-99.99,,,0.00,Acu-Link.com,2013-01-19 13:42:00,
2013-01-19 07:57:00,34.3,24.5,29.91,West,270,2.7,-999.0,67,-99.99,,,0.00,Acu-Link.com,2013-01-19 13:57:00,
2013-01-19 08:12:00,34.2,24.4,29.91,West,270,4.2,-999.0,67,-99.99,,,0.00,Acu-Link.com,2013-01-19 14:12:00,
2013-01-19 08:27:00,33.8,24.4,29.93,West,270,4.7,-999.0,68,-99.99,,,0.00,Acu-Link.com,2013-01-19 14:27:00,
2013-01-19 08:43:00,35.6,25.4,29.93,WNW,292,4.2,-999.0,66,-99.99,,,0.00,Acu-Link.com,2013-01-19 14:43:00,
2013-01-19 08:58:00,37.2,25.8,29.94,WSW,247,3.7,-999.0,63,-99.99,,,0.00,Acu-Link.com,2013-01-19 14:58:00,
2013-01-19 09:13:00,39.2,26.5,29.95,WNW,292,4.2,-999.0,60,-99.99,,,0.00,Acu-Link.com,2013-01-19 15:13:00,
2013-01-19 09:28:00,40.6,26.6,29.96,West,270,2.7,-999.0,57,-99.99,,,0.00,Acu-Link.com,2013-01-19 15:28:00,
2013-01-19 09:44:00,41.7,27.2,29.97,West,270,4.7,-999.0,56,-99.99,,,0.00,Acu-Link.com,2013-01-19 15:44:00,
2013-01-19 09:59:00,43.2,27.2,29.98,West,270,5.8,-999.0,53,-99.99,,,0.00,Acu-Link.com,2013-01-19 15:59:00,
2013-01-19 10:14:00,44.8,27.8,29.98,West,270,3.2,-999.0,51,-99.99,,,0.00,Acu-Link.com,2013-01-19 16:14:00,
2013-01-19 10:30:00,47.1,27.9,29.99,West,270,7.3,-999.0,47,-99.99,,,0.00,Acu-Link.com,2013-01-19 16:30:00,
2013-01-19 10:45:00,48.2,28.4,29.99,West,270,5.3,-999.0,46,-99.99,,,0.00,Acu-Link.com,2013-01-19 16:45:00,
2013-01-19 11:00:00,50.2,28.6,30.00,West,270,4.7,-999.0,43,-99.99,,,0.00,Acu-Link.com,2013-01-19 17:00:00,
2013-01-19 11:15:00,51.1,28.2,30.00,WNW,292,5.3,-999.0,41,-99.99,,,0.00,Acu-Link.com,2013-01-19 17:15:00,
2013-01-19 11:30:00,52.7,28.4,30.00,West,270,6.8,-999.0,39,-99.99,,,0.00,Acu-Link.com,2013-01-19 17:30:00,
2013-01-19 11:45:00,53.6,28.0,29.99,NW,315,3.7,-999.0,37,-99.99,,,0.00,Acu-Link.com,2013-01-19 17:45:00,
2013-01-19 12:01:00,54.5,28.1,29.99,WNW,292,4.7,-999.0,36,-99.99,,,0.00,Acu-Link.com,2013-01-19 18:01:00,
2013-01-19 12:31:00,55.8,27.9,29.99,NW,315,7.8,-999.0,34,-99.99,,,0.00,Acu-Link.com,2013-01-19 18:31:00,
2013-01-19 13:02:00,56.1,28.1,29.98,West,270,6.8,-999.0,34,-99.99,,,0.00,Acu-Link.com,2013-01-19 19:02:00,
2013-01-19 13:17:00,55.8,27.9,29.98,NW,315,6.3,-999.0,34,-99.99,,,0.00,Acu-Link.com,2013-01-19 19:17:00,
2013-01-19 13:33:00,55.8,27.9,29.98,WNW,292,4.7,-999.0,34,-99.99,,,0.00,Acu-Link.com,2013-01-19 19:33:00,
2013-01-19 14:34:00,55.8,28.6,29.99,West,270,4.7,-999.0,35,-99.99,,,0.00,Acu-Link.com,2013-01-19 20:34:00,
2013-01-19 15:05:00,55.4,27.5,30.01,NNW,337,8.3,-999.0,34,-99.99,,,0.00,Acu-Link.com,2013-01-19 21:05:00,
2013-01-19 15:20:00,55.4,26.8,30.00,West,270,8.3,-999.0,33,-99.99,,,0.00,Acu-Link.com,2013-01-19 21:20:00,
2013-01-19 15:35:00,55.2,27.3,30.01,NW,315,8.3,-999.0,34,-99.99,,,0.00,Acu-Link.com,2013-01-19 21:35:00,
2013-01-19 15:51:00,55.0,27.2,30.02,North,0,5.8,-999.0,34,-99.99,,,0.00,Acu-Link.com,2013-01-19 21:51:00,
2013-01-19 16:06:00,54.7,27.6,30.03,NW,315,4.7,-999.0,35,-99.99,,,0.00,Acu-Link.com,2013-01-19 22:06:00,
2013-01-19 16:21:00,53.8,26.8,30.03,NW,315,4.7,-999.0,35,-99.99,,,0.00,Acu-Link.com,2013-01-19 22:21:00,
2013-01-19 17:07:00,49.5,27.4,30.05,NW,315,5.3,-999.0,42,-99.99,,,0.00,Acu-Link.com,2013-01-19 23:07:00,
2013-01-19 17:22:00,47.8,27.0,30.06,WNW,292,2.2,-999.0,44,-99.99,,,0.00,Acu-Link.com,2013-01-19 23:22:00,
2013-01-19 17:38:00,45.7,26.6,30.07,WNW,292,1.7,-999.0,47,-99.99,,,0.00,Acu-Link.com,2013-01-19 23:38:00,
2013-01-19 18:08:00,41.7,26.7,30.08,NNW,337,3.7,-999.0,55,-99.99,,,0.00,Acu-Link.com,2013-01-20 00:08:00,
2013-01-19 18:23:00,41.4,26.9,30.08,NE,45,3.2,-999.0,56,-99.99,,,0.00,Acu-Link.com,2013-01-20 00:23:00,
2013-01-19 18:39:00,40.5,26.9,30.09,WSW,247,2.2,-999.0,58,-99.99,,,0.00,Acu-Link.com,2013-01-20 00:39:00,
2013-01-19 18:54:00,39.4,26.3,30.11,West,270,1.7,-999.0,59,-99.99,,,0.00,Acu-Link.com,2013-01-20 00:54:00,
2013-01-19 19:09:00,38.3,26.0,30.13,North,0,1.1,-999.0,61,-99.99,,,0.00,Acu-Link.com,2013-01-20 01:09:00,
2013-01-19 19:25:00,37.8,26.0,30.13,NNW,337,1.1,-999.0,62,-99.99,,,0.00,Acu-Link.com,2013-01-20 01:25:00,
2013-01-19 19:40:00,37.2,25.8,30.15,NW,315,2.7,-999.0,63,-99.99,,,0.00,Acu-Link.com,2013-01-20 01:40:00,
2013-01-19 19:55:00,36.5,25.9,30.16,West,270,2.7,-999.0,65,-99.99,,,0.00,Acu-Link.com,2013-01-20 01:55:00,
2013-01-19 20:11:00,36.1,26.2,30.16,ESE,112,1.7,-999.0,67,-99.99,,,0.00,Acu-Link.com,2013-01-20 02:11:00,
2013-01-19 20:41:00,35.6,26.1,30.17,NNE,22,1.7,-999.0,68,-99.99,,,0.00,Acu-Link.com,2013-01-20 02:41:00,
2013-01-19 21:27:00,34.2,26.1,30.19,NNE,22,3.7,-999.0,72,-99.99,,,0.00,Acu-Link.com,2013-01-20 03:27:00,
2013-01-19 21:42:00,33.1,26.7,30.20,NNE,22,6.8,-999.0,77,-99.99,,,0.00,Acu-Link.com,2013-01-20 03:42:00,
2013-01-19 21:58:00,30.9,26.1,30.21,NNE,22,4.2,-999.0,82,-99.99,,,0.00,Acu-Link.com,2013-01-20 03:58:00,
2013-01-19 22:13:00,30.0,25.5,30.22,NNW,337,5.3,-999.0,83,-99.99,,,0.00,Acu-Link.com,2013-01-20 04:13:00,
2013-01-19 22:28:00,29.3,23.6,30.22,ENE,67,3.7,-999.0,79,-99.99,,,0.00,Acu-Link.com,2013-01-20 04:28:00,
2013-01-19 22:44:00,28.2,21.6,30.23,NE,45,4.2,-999.0,76,-99.99,,,0.00,Acu-Link.com,2013-01-20 04:44:00,
2013-01-19 22:59:00,27.7,22.1,30.23,North,0,4.2,-999.0,79,-99.99,,,0.00,Acu-Link.com,2013-01-20 04:59:00,
2013-01-19 23:14:00,27.1,20.9,30.23,NW,315,4.7,-999.0,77,-99.99,,,0.00,Acu-Link.com,2013-01-20 05:14:00,
2013-01-19 23:29:00,27.0,20.5,30.22,NE,45,4.7,-999.0,76,-99.99,,,0.00,Acu-Link.com,2013-01-20 05:29:00,
2013-01-19 23:45:00,26.1,19.9,30.23,WNW,292,2.7,-999.0,77,-99.99,,,0.00,Acu-Link.com,2013-01-20 05:45:00,